Flight Track Log - Related Links

Times and Time Zones

All times are in EDT time to prevent confusion due to time zone crossing. See the UAL1177 flight status page for this flight to view local times or setup timezone preferences in your user account.

Time Position Orientation Groundspeed Altitude Reporting Facility
EDT Latitude Longitude Course Direction KTS MPH feet Rate Location/Type
Sat 05:26:54 PM 37.6500 -122.3833 63° Northeast 199 229 2,100  Level Northern TRACON
Sat 05:27:54 PM 37.6833 -122.3000 63° Northeast 268 308 5,000 3,097 Climbing Northern TRACON
Sat 05:28:00 PM 37.6189 -122.3883 120° Southeast  Level FlightAware
Sat 05:28:58 PM 37.7164 -122.2286 60° Northeast 267 307 8,500  Level Oakland Center
Sat 05:29:00 PM 37.6562 -122.2252 72° East  Level FlightAware
Sat 05:29:59 PM 37.7514 -122.1094 70° East 299 344 12,200  Level Oakland Center
Sat 05:30:00 PM 37.7135 -122.0696 70° East  Level FlightAware
Sat 05:31:00 PM 37.7637 -121.9089 67° East  Level FlightAware
Sat 05:31:00 PM 37.7853 -122.0000 69° East 332 382 14,500  Level Oakland Center
Sat 05:32:00 PM 37.8135 -121.7495 63° Northeast  Level FlightAware
Sat 05:32:01 PM 37.8208 -121.8800 69° East 366 421 17,300  Level Oakland Center
Sat 05:33:02 PM 37.8575 -121.7556 70° East 377 434 20,100 2,557 Climbing Oakland Center
Sat 05:34:03 PM 37.8956 -121.6236 70° East 396 456 22,500 2,213 Climbing Oakland Center
Sat 05:35:04 PM 37.9358 -121.4881 69° East 410 472 24,600 2,213 Climbing Oakland Center
Sat 05:36:05 PM 37.9811 -121.3306 70° East 430 495 27,000 2,066 Climbing Oakland Center
Sat 05:37:06 PM 38.0222 -121.1856 70° East 439 505 28,800 1,672 Climbing Oakland Center
Sat 05:38:07 PM 38.0656 -121.0353 70° East 454 522 30,400 1,475 Climbing Oakland Center
Sat 05:39:08 PM 38.0936 -120.8722 78° East 476 548 31,800 1,475 Climbing Oakland Center
Sat 05:40:09 PM 38.1153 -120.7050 81° East 482 555 33,400 1,623 Climbing Oakland Center
Sat 05:41:10 PM 38.1378 -120.5372 80° East 484 557 35,100 1,426 Climbing Oakland Center
Sat 05:42:11 PM 38.1603 -120.3711 80° East 483 556 36,300 1,082 Climbing Oakland Center
Sat 05:43:12 PM 38.1828 -120.2003 80° East 489 563 37,300 984 Climbing Oakland Center
Sat 05:44:13 PM 38.2044 -120.0311 81° East 488 562 38,300 836 Climbing Oakland Center
Sat 05:45:14 PM 38.2258 -119.8583 81° East 494 568 39,000 344 Climbing Oakland Center
Sat 05:46:15 PM 38.2533 -119.6525 80° East 493 567 39,000  Level Oakland Center
Sat 05:47:17 PM 38.2719 -119.4797 82° East 494 568 39,000  Level Oakland Center
Sat 05:48:18 PM 38.2953 -119.3061 80° East 492 566 39,000  Level Oakland Center
Sat 05:49:19 PM 38.3161 -119.1333 81° East 494 568 39,000  Level Oakland Center
Sat 05:50:20 PM 38.3364 -118.9597 81° East 497 572 39,000  Level Oakland Center
Sat 05:51:21 PM 38.3567 -118.7853 82° East 499 574 39,000  Level Oakland Center
Sat 05:52:22 PM 38.3764 -118.6092 82° East 503 579 39,000  Level Oakland Center
Sat 05:53:23 PM 38.3897 -118.4319 84° East 506 582 39,000  Level Oakland Center
Sat 05:54:24 PM 38.3928 -118.2536 89° East 506 582 39,000  Level Oakland Center
Sat 05:55:25 PM 38.3953 -118.0625 89° East 512 589 39,000  Level Oakland Center
Sat 05:56:26 PM 38.3981 -117.8825 89° East 508 585 39,000  Level Oakland Center
Sat 05:57:28 PM 38.4006 -117.6992 89° East 512 589 39,000  Level Oakland Center
Sat 05:58:06 PM 38.4014 -117.5883 89° East 515 593 39,000  Level Salt Center
Sat 05:58:29 PM 38.4017 -117.5161 90° East 513 590 39,000  Level Oakland Center
Sat 05:59:30 PM 38.4025 -117.3308 90° East 515 593 39,000  Level Oakland Center
Sat 06:00:09 PM 38.4036 -117.2194 89° East 514 592 39,000  Level Salt Center
Sat 06:01:10 PM 38.4044 -117.0339 90° East 516 594 39,000  Level Salt Center
Sat 06:01:33 PM 38.4047 -116.9608 90° East 514 592 39,000  Level Oakland Center
Sat 06:02:34 PM 38.4050 -116.7761 90° East 515 593 39,000  Level Oakland Center
Sat 06:03:35 PM 38.4058 -116.5900 90° East 522 601 39,000  Level Oakland Center
Sat 06:04:14 PM 38.4067 -116.4419 90° East 522 601 39,000  Level Salt Center
Sat 06:04:36 PM 38.4067 -116.3678 90° East 521 600 39,000  Level Oakland Center
Sat 06:05:37 PM 38.4058 -116.1844 90° East 517 595 39,000  Level Oakland Center
Sat 06:06:16 PM 38.4067 -116.0736 89° East 521 600 39,000  Level Salt Center
Sat 06:07:18 PM 38.4067 -115.8900 90° East 518 596 39,000  Level Salt Center
Sat 06:08:19 PM 38.4050 -115.7056 91° East 520 598 39,000  Level Salt Center
Sat 06:09:20 PM 38.4039 -115.5197 90° East 524 603 39,000  Level Salt Center
Sat 06:10:21 PM 38.4022 -115.3364 91° East 526 605 39,000  Level Salt Center
Sat 06:11:22 PM 38.4022 -115.1492 90° East 529 609 39,000  Level Salt Center
Sat 06:12:24 PM 38.3986 -114.9628 91° East 527 606 39,000  Level Salt Center
Sat 06:13:25 PM 38.3958 -114.7428 91° East 519 597 39,000  Level Salt Center
Sat 06:14:26 PM 38.3936 -114.5567 91° East 524 603 39,000  Level Salt Center
Sat 06:15:27 PM 38.3911 -114.3703 91° East 526 605 39,000  Level Salt Center
Sat 06:16:28 PM 38.3886 -114.1844 91° East 525 604 39,000  Level Salt Center
Sat 06:17:29 PM 38.3850 -113.9989 91° East 523 602 39,000  Level Salt Center
Sat 06:18:31 PM 38.3806 -113.8144 92° East 522 601 39,000  Level Salt Center
Sat 06:19:32 PM 38.3767 -113.6297 91° East 522 601 39,000  Level Salt Center
Sat 06:20:33 PM 38.3722 -113.4442 92° East 524 603 39,000  Level Salt Center
Sat 06:21:34 PM 38.3681 -113.2581 92° East 524 603 39,000  Level Salt Center
Sat 06:22:35 PM 38.3619 -113.0711 92° East 526 605 39,000  Level Salt Center
Sat 06:23:36 PM 38.3828 -112.8931 81° East 506 582 39,000  Level Salt Center
Sat 06:24:37 PM 38.4147 -112.7203 77° East 502 578 39,000  Level Salt Center
Sat 06:25:38 PM 38.4467 -112.5447 77° East 505 581 39,000  Level Salt Center
Sat 06:26:39 PM 38.4847 -112.3319 77° East 510 587 39,000  Level Salt Center
Sat 06:27:40 PM 38.5158 -112.1592 77° East 503 579 39,000  Level Salt Center
Sat 06:28:41 PM 38.5467 -111.9875 77° East 498 573 39,000  Level Salt Center
Sat 06:29:42 PM 38.5764 -111.8158 77° East 496 571 39,000  Level Salt Center
Sat 06:30:44 PM 38.6072 -111.6419 77° East 501 577 39,000  Level Salt Center
Sat 06:31:45 PM 38.6378 -111.4656 77° East 506 582 39,000  Level Salt Center
Sat 06:32:46 PM 38.6667 -111.2894 78° East 507 583 39,000  Level Salt Center
Sat 06:33:47 PM 38.6942 -111.1203 78° East 491 565 39,000  Level Salt Center
Sat 06:34:48 PM 38.7236 -110.9536 77° East 482 555 39,000  Level Salt Center
Sat 06:35:49 PM 38.7514 -110.7850 78° East 490 564 39,000  Level Salt Center
Sat 06:36:50 PM 38.7831 -110.5922 78° East 494 568 39,000  Level Salt Center
Sat 06:37:51 PM 38.8092 -110.4269 78° East 495 570 39,000  Level Salt Center
Sat 06:38:11 PM 38.8169 -110.3689 80° East 497 572 39,000  Level Denver Center
Sat 06:39:12 PM 38.8469 -110.1747 79° East 497 572 39,000  Level Denver Center
Sat 06:39:53 PM 38.8650 -110.0672 78° East 496 571 39,000 -294 Level Salt Center
Sat 06:40:54 PM 38.8917 -109.9028 78° East 494 568 38,500 -732 Descending Salt Center
Sat 06:41:15 PM 38.9036 -109.8211 79° East 484 557 38,000 -1,012 Descending Denver Center
Sat 06:42:17 PM 38.9275 -109.6575 79° East 488 562 37,100 -878 Descending Denver Center
Sat 06:43:18 PM 38.9539 -109.4914 78° East 501 577 36,200 -934 Descending Denver Center
Sat 06:44:19 PM 38.9833 -109.2947 79° East 502 578 35,200 -976 Descending Denver Center
Sat 06:45:21 PM 39.0089 -109.1275 79° East 500 575 34,200 -1,024 Descending Denver Center
Sat 06:46:22 PM 39.0378 -108.9342 79° East 497 572 33,100 -934 Descending Denver Center
Sat 06:47:23 PM 39.0631 -108.7661 79° East 503 579 32,300 -878 Descending Denver Center
Sat 06:48:25 PM 39.0983 -108.6028 74° East 498 573 31,300 -634 Descending Denver Center
Sat 06:49:26 PM 39.1378 -108.4125 75° East 495 570 31,000 -148 Descending Denver Center
Sat 06:50:27 PM 39.1714 -108.2497 75° East 494 568 31,000  Level Denver Center
Sat 06:51:29 PM 39.2108 -108.0589 75° East 494 568 31,000  Level Denver Center
Sat 06:52:30 PM 39.2439 -107.8950 75° East 496 571 31,000  Level Denver Center
Sat 06:53:31 PM 39.2808 -107.7031 76° East 496 571 31,000  Level Denver Center
Sat 06:54:33 PM 39.3147 -107.5381 75° East 496 571 31,000  Level Denver Center
Sat 06:55:34 PM 39.3478 -107.3722 75° East 498 573 31,000  Level Denver Center
Sat 06:56:36 PM 39.3836 -107.1797 76° East 496 571 31,000  Level Denver Center
Sat 06:57:37 PM 39.4158 -107.0139 76° East 497 572 31,000  Level Denver Center
Sat 06:58:38 PM 39.4489 -106.8203 77° East 493 567 31,000  Level Denver Center
Sat 06:59:40 PM 39.4689 -106.6472 81° East 506 582 31,000  Level Denver Center
Sat 07:00:41 PM 39.4881 -106.4831 81° East 503 579 31,000  Level Denver Center
Sat 07:01:43 PM 39.5092 -106.3053 81° East 499 574 31,000  Level Denver Center
Sat 07:02:44 PM 39.5319 -106.0986 82° East 492 566 31,000  Level Denver Center
Sat 07:03:45 PM 39.5517 -105.9231 82° East 489 563 31,000  Level Denver Center
Sat 07:04:47 PM 39.5742 -105.7442 81° East 500 575 31,000  Level Denver Center
Sat 07:05:48 PM 39.5917 -105.5675 83° East 489 563 31,000  Level Denver Center
Sat 07:06:50 PM 39.6108 -105.3950 82° East 477 549 31,000  Level Denver Center
Sat 07:07:51 PM 39.6281 -105.2225 83° East 478 550 31,000  Level Denver Center
Sat 07:08:52 PM 39.6458 -105.0522 82° East 471 542 31,000  Level Denver Center
Sat 07:09:54 PM 39.6631 -104.8761 83° East 483 556 31,000  Level Denver Center
Sat 07:10:55 PM 39.6817 -104.6994 82° East 469 540 31,000  Level Denver Center
Sat 07:11:57 PM 39.6811 -104.5161 90° East 481 554 31,000  Level Denver Center
Sat 07:12:58 PM 39.6642 -104.3397 97° East 480 552 31,000  Level Denver Center
Sat 07:13:59 PM 39.6475 -104.1636 97° East 484 557 31,000  Level Denver Center
Sat 07:15:01 PM 39.6300 -103.9872 97° East 488 562 31,000  Level Denver Center
Sat 07:16:02 PM 39.6136 -103.8125 97° East 481 554 31,000  Level Denver Center
Sat 07:17:04 PM 39.5978 -103.6411 97° East 473 544 31,000  Level Denver Center
Sat 07:18:05 PM 39.5792 -103.4667 98° East 481 554 31,000  Level Denver Center
Sat 07:19:06 PM 39.5622 -103.2939 97° East 478 550 31,000  Level Denver Center
Sat 07:20:08 PM 39.5417 -103.0928 97° East 479 551 31,000  Level Denver Center
Sat 07:21:09 PM 39.5231 -102.9192 98° East 481 554 31,000  Level Denver Center
Sat 07:22:11 PM 39.5053 -102.7453 97° East 483 556 31,000  Level Denver Center
Sat 07:23:12 PM 39.4867 -102.5717 98° East 484 557 31,000  Level Denver Center
Sat 07:24:14 PM 39.4667 -102.3981 98° East 483 556 31,000  Level Denver Center
Sat 07:25:15 PM 39.4494 -102.2367 98° East 480 552 31,000  Level Denver Center
Sat 07:26:17 PM 39.4281 -102.0453 98° East 482 555 31,000  Level Denver Center
Sat 07:27:18 PM 39.4089 -101.8833 99° East 478 550 31,000  Level Denver Center
Sat 07:28:20 PM 39.3875 -101.6928 98° East 482 555 31,000  Level Denver Center
Sat 07:29:21 PM 39.3717 -101.5311 97° East 477 549 31,000  Level Denver Center
Sat 07:30:22 PM 39.3561 -101.3686 97° East 478 550 31,000  Level Denver Center
Sat 07:31:24 PM 39.3381 -101.1822 97° East 471 542 31,000  Level Denver Center
Sat 07:32:25 PM 39.3222 -101.0228 97° East 469 540 31,000  Level Denver Center
Sat 07:33:27 PM 39.3022 -100.8356 98° East 472 543 31,000  Level Denver Center
Sat 07:34:40 PM 39.2861 -100.6767 97° East 470 541 31,000  Level Denver Center
Sat 07:35:42 PM 39.2639 -100.4625 98° East 474 545 31,000  Level Denver Center
Sat 07:36:43 PM 39.2461 -100.3017 98° East 475 547 31,000  Level Denver Center
Sat 07:37:45 PM 39.2261 -100.1153 98° East 472 543 31,000  Level Denver Center
Sat 07:38:46 PM 39.2078 -99.9575 98° East 470 541 31,000  Level Denver Center
Sat 07:39:48 PM 39.1883 -99.7733 98° East 466 536 31,000  Level Denver Center
Sat 07:40:49 PM 39.1703 -99.6158 98° East 465 535 31,000  Level Denver Center
Sat 07:41:51 PM 39.1531 -99.4569 98° East 466 536 31,000  Level Denver Center
Sat 07:42:52 PM 39.1308 -99.2719 99° East 468 539 31,000  Level Denver Center
Sat 07:43:54 PM 39.1119 -99.1192 99° East 454 522 31,000  Level Denver Center
Sat 07:44:55 PM 39.1022 -98.9419 94° East 444 511 31,000  Level Denver Center
Sat 07:45:57 PM 39.0989 -98.7828 91° East 445 512 31,000  Level Denver Center
Sat 07:46:23 PM 39.0972 -98.7453 93° East 444 511 31,000  Level Kansas Center
Sat 07:47:26 PM 39.0914 -98.5542 92° East 444 511 31,000  Level Kansas Center
Sat 07:48:26 PM 39.0875 -98.3936 92° East 447 514 31,000  Level Kansas Center
Sat 07:49:29 PM 39.0817 -98.2339 93° East 447 514 31,000 -336 Level Kansas Center
Sat 07:50:31 PM 39.0772 -98.0736 92° East 448 516 30,300 -878 Descending Kansas Center
Sat 07:51:32 PM 39.0719 -97.9150 92° East 446 513 29,200 -634 Descending Kansas Center
Sat 07:52:34 PM 39.0669 -97.7603 92° East 432 497 29,000 -99 Descending Kansas Center
Sat 07:53:33 PM 39.0606 -97.5875 93° East 434 499 29,000  Level Kansas Center
Sat 07:54:36 PM 39.0547 -97.4361 93° East 441 507 29,000  Level Kansas Center
Sat 07:55:37 PM 39.0483 -97.2864 93° East 438 504 29,000  Level Kansas Center
Sat 07:56:38 PM 39.0406 -97.1114 93° East 438 504 29,000  Level Kansas Center
Sat 07:57:41 PM 39.0342 -96.9611 93° East 440 506 29,000  Level Kansas Center
Sat 07:58:42 PM 39.0278 -96.7861 93° East 441 507 29,000  Level Kansas Center
Sat 07:59:43 PM 39.0200 -96.6347 94° East 443 510 29,000  Level Kansas Center
Sat 08:00:44 PM 39.0133 -96.4831 93° East 444 511 29,000  Level Kansas Center
Sat 08:01:47 PM 39.0039 -96.3067 94° East 445 512 29,000  Level Kansas Center
Sat 08:02:46 PM 38.9964 -96.1544 94° East 446 513 29,000  Level Kansas Center
Sat 08:03:49 PM 38.9875 -95.9806 94° East 438 504 29,000 488 Level Kansas Center
Sat 08:04:49 PM 38.9794 -95.8303 94° East 441 507 30,000 992 Climbing Kansas Center
Sat 08:05:50 PM 38.9703 -95.6547 94° East 444 511 31,000 1,200 Climbing Kansas Center
Sat 08:06:54 PM 38.9622 -95.5003 94° East 455 524 32,500 1,645 Climbing Kansas Center
Sat 08:07:54 PM 38.9517 -95.3183 94° East 463 533 34,400 1,250 Climbing Kansas Center
Sat 08:08:54 PM 38.9431 -95.1628 94° East 463 533 35,000 290 Climbing Kansas Center
Sat 08:09:58 PM 38.9333 -95.0092 95° East 456 525 35,000  Level Kansas Center
Sat 08:10:59 PM 38.9222 -94.8289 94° East 458 527 35,000  Level Kansas Center
Sat 08:11:59 PM 38.9125 -94.6747 95° East 456 525 35,000  Level Kansas Center
Sat 08:13:00 PM 38.9003 -94.4917 95° East 461 531 35,000  Level Kansas Center
Sat 08:14:03 PM 38.8897 -94.3350 95° East 462 532 35,000  Level Kansas Center
Sat 08:15:05 PM 38.8778 -94.1522 95° East 460 529 35,000  Level Kansas Center
Sat 08:16:06 PM 38.8672 -93.9958 95° East 462 532 35,000  Level Kansas Center
Sat 08:17:07 PM 38.8553 -93.8386 96° East 462 532 35,000  Level Kansas Center
Sat 08:18:07 PM 38.8467 -93.6592 93° East 468 539 35,000 -48 Level Kansas Center
Sat 08:19:11 PM 38.8361 -93.4978 95° East 460 529 34,900 -532 Descending Kansas Center
Sat 08:20:11 PM 38.8222 -93.3344 96° East 456 525 33,900 -1,000 Descending Kansas Center
Sat 08:21:11 PM 38.8100 -93.1683 95° East 463 533 32,900 -934 Descending Kansas Center
Sat 08:22:13 PM 38.7964 -93.0036 96° East 463 533 32,000 -919 Descending Kansas Center
Sat 08:23:15 PM 38.7842 -92.8375 95° East 463 533 31,000 -919 Descending Kansas Center
Sat 08:24:17 PM 38.7700 -92.6689 96° East 468 539 30,100 -976 Descending Kansas Center
Sat 08:25:18 PM 38.7564 -92.4989 96° East 474 545 29,000 -1,033 Descending Kansas Center
Sat 08:26:19 PM 38.7439 -92.3308 95° East 473 544 28,000 -1,082 Descending Kansas Center
Sat 08:27:20 PM 38.7275 -92.1347 96° East 462 532 26,800 -1,140 Descending Kansas Center
Sat 08:28:20 PM 38.7114 -91.9725 97° East 457 526 25,700 -1,548 Descending Kansas Center
Sat 08:29:24 PM 38.6983 -91.8178 96° East 446 513 23,600 -2,049 Descending Kansas Center
Sat 08:30:23 PM 38.6897 -91.6672 94° East 436 502 21,500 -2,138 Descending Kansas Center
Sat 08:30:51 PM 38.6939 -91.5417 88° East 412 474 20,500 -2,045 Descending FAA TRACON
Sat 08:31:07 PM 38.6939 -91.5083 90° East 410 472 20,000 -1,946 Descending FAA TRACON
Sat 08:31:28 PM 38.6922 -91.4522 92° East 407 468 19,300 -1,902 Descending FAA TRACON
Sat 08:31:48 PM 38.6931 -91.4089 89° East 402 463 18,700 -2,000 Descending FAA TRACON
Sat 08:32:07 PM 38.6925 -91.3653 91° East 399 459 18,000 -2,400 Descending FAA TRACON
Sat 08:32:28 PM 38.6931 -91.3114 89° East 394 453 17,100 -2,195 Descending FAA TRACON
Sat 08:32:48 PM 38.6917 -91.2683 92° East 393 452 16,500 -2,100 Descending FAA TRACON
Sat 08:33:08 PM 38.6917 -91.2150 90° East 391 450 15,700 -2,100 Descending FAA TRACON
Sat 08:33:28 PM 38.6911 -91.1722 91° East 388 447 15,100 -1,800 Descending FAA TRACON
Sat 08:33:48 PM 38.6919 -91.1308 89° East 384 442 14,500 -2,769 Descending FAA TRACON
Sat 08:34:07 PM 38.6939 -91.0886 87° East 385 443 13,300 -4,200 Descending FAA TRACON
Sat 08:34:28 PM 38.7025 -91.0347 78° East 399 459 11,700 -3,366 Descending FAA TRACON
Sat 08:34:48 PM 38.7128 -90.9931 72° East 404 465 11,000 -1,538 Descending FAA TRACON
Sat 08:35:07 PM 38.7244 -90.9533 69° East 394 453 10,700 -1,350 Descending FAA TRACON
Sat 08:35:28 PM 38.7375 -90.9061 70° East 371 427 10,100 -1,610 Descending FAA TRACON
Sat 08:35:48 PM 38.7467 -90.8700 72° East 356 410 9,600 -1,231 Descending FAA TRACON
Sat 08:36:07 PM 38.7564 -90.8353 70° East 343 395 9,300 -1,500 Descending FAA TRACON
Sat 08:36:28 PM 38.7681 -90.7933 70° East 327 376 8,600 -1,902 Descending FAA TRACON
Sat 08:36:48 PM 38.7767 -90.7606 71° East 321 369 8,000 -1,692 Descending FAA TRACON
Sat 08:37:07 PM 38.7853 -90.7272 72° East 319 367 7,500 -1,650 Descending FAA TRACON
Sat 08:37:28 PM 38.7956 -90.6869 72° East 311 358 6,900 -1,756 Descending FAA TRACON
Sat 08:37:48 PM 38.8042 -90.6553 71° East 307 353 6,300 -1,846 Descending FAA TRACON
Sat 08:38:07 PM 38.8128 -90.6239 71° East 304 350 5,700 -1,650 Descending FAA TRACON
Sat 08:38:28 PM 38.8231 -90.5856 71° East 298 343 5,200 -1,317 Descending FAA TRACON
Sat 08:38:48 PM 38.8261 -90.5564 82° East 278 320 4,800 -900 Descending FAA TRACON
Sat 08:39:08 PM 38.8275 -90.5300 86° East 250 288 4,600 -600 Descending FAA TRACON

Login

Don't have an account? Register now (free) for customized features, flight alerts, and more!